Time;durP1;ratioP1;P1;durP2;ratioP2;P2;SDS_P1;SDS_P2;PMS_P1;PMS_P2;Temp;Humidity;BMP_temperature;BMP_pressure;BME280_temperature;BME280_humidity;BME280_pressure;Samples;Min_cycle;Max_cycle;Signal;HPM_P1;HPM_P2
2023/11/02 00:00:10;;;;;;;3.77;1.37;;;;;;;;;;5032602;28;20010;-77
2023/11/02 00:02:38;;;;;;;2.27;0.83;;;;;;;;;;5039561;28;20010;-77
2023/11/02 00:05:04;;;;;;;4.73;0.80;;;;;;;;;;5057919;28;20010;-77
2023/11/02 00:07:38;;;;;;;5.50;0.73;;;;;;;;;;5039977;28;20021;-76
2023/11/02 00:10:08;;;;;;;3.77;0.90;;;;;;;;;;5036555;28;20030;-77
2023/11/02 00:12:36;;;;;;;2.80;0.67;;;;;;;;;;5033964;28;20014;-78
2023/11/02 00:15:03;;;;;;;1.97;0.60;;;;;;;;;;5037447;28;20013;-78
2023/11/02 00:17:38;;;;;;;2.57;0.70;;;;;;;;;;5048529;28;20018;-78
2023/11/02 00:20:06;;;;;;;3.27;1.07;;;;;;;;;;5029177;28;20032;-80
2023/11/02 00:22:37;;;;;;;1.93;0.70;;;;;;;;;;5038518;28;20013;-78
2023/11/02 00:25:07;;;;;;;2.63;0.60;;;;;;;;;;5035776;28;20048;-77
2023/11/02 00:27:33;;;;;;;1.30;0.50;;;;;;;;;;5030820;28;20017;-78
2023/11/02 00:30:06;;;;;;;1.23;0.57;;;;;;;;;;5040609;28;20037;-77
2023/11/02 00:32:33;;;;;;;2.67;1.20;;;;;;;;;;5039645;28;20096;-78
2023/11/02 00:35:09;;;;;;;;;;;;;;;;;;;;;
2023/11/02 00:37:39;;;;;;;2.77;0.50;;;;;;;;;;5060048;28;20036;-78
2023/11/02 00:40:05;;;;;;;4.90;0.73;;;;;;;;;;5042539;28;20025;-78
2023/11/02 00:42:31;;;;;;;2.57;0.70;;;;;;;;;;5039070;28;20028;-78
2023/11/02 00:45:00;;;;;;;3.67;0.57;;;;;;;;;;5039880;28;20150;-78
2023/11/02 00:47:44;;;;;;;2.17;0.57;;;;;;;;;;5057050;28;20030;-78
2023/11/02 00:50:31;;;;;;;8.57;0.60;;;;;;;;;;5036420;28;20113;-78
2023/11/02 00:53:03;;;;;;;5.93;0.80;;;;;;;;;;5036353;28;20025;-78
2023/11/02 00:55:40;;;;;;;2.20;0.70;;;;;;;;;;5056105;28;20076;-78
2023/11/02 00:58:08;;;;;;;1.67;0.60;;;;;;;;;;5037297;28;20021;-77
2023/11/02 01:00:54;;;;;;;;;;;;;;;;;;;;;
2023/11/02 01:03:26;;;;;;;6.67;1.17;;;;;;;;;;5055868;28;20045;-78
2023/11/02 01:05:52;;;;;;;3.45;0.90;;;;;;;;;;5035204;28;20026;-77
2023/11/02 01:08:24;;;;;;;3.50;0.70;;;;;;;;;;5055336;28;20077;-79
2023/11/02 01:10:50;;;;;;;3.20;0.75;;;;;;;;;;5038071;28;20065;-79
2023/11/02 01:13:18;;;;;;;1.43;0.40;;;;;;;;;;5055583;28;20035;-78
2023/11/02 01:16:01;;;;;;;2.23;0.73;;;;;;;;;;5036747;28;20037;-78
2023/11/02 01:18:35;;;;;;;2.40;0.80;;;;;;;;;;5037566;28;20113;-78
2023/11/02 01:21:05;;;;;;;4.93;0.93;;;;;;;;;;5055253;28;20021;-78
2023/11/02 01:23:37;;;;;;;2.00;0.60;;;;;;;;;;5054274;28;20029;-77
2023/11/02 01:26:08;;;;;;;7.38;1.20;;;;;;;;;;5036349;28;20009;-77
2023/11/02 01:28:55;;;;;;;5.60;1.10;;;;;;;;;;5034529;28;20072;-79
2023/11/02 01:31:43;;;;;;;3.23;0.70;;;;;;;;;;5054081;28;20041;-78
2023/11/02 01:34:14;;;;;;;3.67;0.97;;;;;;;;;;5054465;28;20060;-78
2023/11/02 01:36:47;;;;;;;4.30;0.87;;;;;;;;;;5037835;28;20026;-78
2023/11/02 01:39:14;;;;;;;2.67;0.80;;;;;;;;;;5036386;28;20053;-78
2023/11/02 01:41:47;;;;;;;3.33;0.63;;;;;;;;;;5036839;28;20064;-78
2023/11/02 01:44:22;;;;;;;7.73;0.90;;;;;;;;;;5037983;28;20104;-78
2023/11/02 01:46:53;;;;;;;4.80;0.70;;;;;;;;;;5034959;28;20026;-77
2023/11/02 01:49:51;;;;;;;;;;;;;;;;;;;;;
2023/11/02 01:52:41;;;;;;;3.10;0.77;;;;;;;;;;5053464;28;20041;-78
2023/11/02 01:55:36;;;;;;;2.57;0.83;;;;;;;;;;5028455;28;20017;-78
2023/11/02 01:58:22;;;;;;;1.83;0.43;;;;;;;;;;5037565;28;20100;-78
2023/11/02 02:01:08;;;;;;;4.77;1.13;;;;;;;;;;5053186;28;20037;-78
2023/11/02 02:03:46;;;;;;;1.73;0.67;;;;;;;;;;5037241;28;20132;-78
2023/11/02 02:06:29;;;;;;;;;;;;;;;;;;;;;
2023/11/02 02:08:55;;;;;;;3.60;0.87;;;;;;;;;;5054123;28;20037;-78
2023/11/02 02:11:40;;;;;;;4.50;0.90;;;;;;;;;;5035637;28;20041;-79
2023/11/02 02:14:08;;;;;;;2.40;0.83;;;;;;;;;;5037253;28;20030;-77
2023/11/02 02:16:37;;;;;;;1.80;0.77;;;;;;;;;;5035561;28;20009;-78
2023/11/02 02:19:19;;;;;;;1.83;0.70;;;;;;;;;;5052006;28;20627;-78
2023/11/02 02:21:51;;;;;;;4.97;0.70;;;;;;;;;;5053762;28;20021;-77
2023/11/02 02:24:23;;;;;;;3.17;0.70;;;;;;;;;;5054292;28;20013;-77
2023/11/02 02:29:29;;;;;;;5.17;1.93;;;;;;;;;;5033393;28;20026;-78
2023/11/02 02:32:10;;;;;;;3.53;0.83;;;;;;;;;;5013728;28;20064;-78
2023/11/02 02:34:42;;;;;;;6.63;1.27;;;;;;;;;;5016867;28;21061;-78
2023/11/02 02:37:15;;;;;;;2.95;1.10;;;;;;;;;;5015376;28;20010;-77
2023/11/02 02:39:44;;;;;;;2.10;0.93;;;;;;;;;;5032386;28;20048;-78
2023/11/02 02:42:11;;;;;;;7.40;1.10;;;;;;;;;;5015171;28;20034;-77
2023/11/02 02:44:49;;;;;;;6.30;0.77;;;;;;;;;;5017302;28;20052;-77
2023/11/02 02:47:24;;;;;;;4.87;0.93;;;;;;;;;;5031490;28;20044;-77
2023/11/02 02:49:59;;;;;;;4.87;1.43;;;;;;;;;;5032186;28;20025;-78
2023/11/02 02:52:36;;;;;;;4.20;0.70;;;;;;;;;;5029107;28;20026;-78
2023/11/02 02:55:23;;;;;;;7.97;1.50;;;;;;;;;;5033380;28;20033;-78
2023/11/02 02:57:52;;;;;;;6.87;1.10;;;;;;;;;;5012775;28;20101;-78
2023/11/02 03:00:19;;;;;;;4.40;1.00;;;;;;;;;;5029133;28;20022;-78
2023/11/02 03:02:49;;;;;;;8.07;1.53;;;;;;;;;;5030473;28;20022;-78
2023/11/02 03:05:15;;;;;;;7.70;1.43;;;;;;;;;;5032020;28;20033;-78
2023/11/02 03:07:44;;;;;;;2.80;0.80;;;;;;;;;;5032082;28;20010;-78
2023/11/02 03:10:11;;;;;;;4.83;1.20;;;;;;;;;;5032954;28;20053;-77
2023/11/02 03:12:39;;;;;;;4.27;1.27;;;;;;;;;;5015968;28;20068;-77
2023/11/02 03:15:13;;;;;;;7.37;1.33;;;;;;;;;;5031862;28;20022;-78
2023/11/02 03:17:58;;;;;;;2.60;1.10;;;;;;;;;;5016057;28;20021;-78
2023/11/02 03:20:26;;;;;;;7.57;1.20;;;;;;;;;;5016524;28;20098;-78
2023/11/02 03:23:03;;;;;;;3.63;0.87;;;;;;;;;;5032347;28;20110;-77
2023/11/02 03:25:40;;;;;;;5.80;1.17;;;;;;;;;;5014458;28;20077;-77
2023/11/02 03:28:21;;;;;;;4.00;0.87;;;;;;;;;;5014914;28;20030;-77
2023/11/02 03:30:59;;;;;;;4.10;1.07;;;;;;;;;;5014094;28;20056;-78
2023/11/02 03:33:40;;;;;;;4.47;1.20;;;;;;;;;;5015789;28;20034;-78
2023/11/02 03:36:19;;;;;;;6.77;0.97;;;;;;;;;;5032983;28;20060;-78
2023/11/02 03:38:45;;;;;;;9.93;1.53;;;;;;;;;;5016429;28;20030;-77
2023/11/02 03:41:40;;;;;;;6.20;1.10;;;;;;;;;;5015261;28;20014;-78
2023/11/02 03:44:06;;;;;;;3.17;0.70;;;;;;;;;;5030982;28;20022;-78
2023/11/02 03:46:40;;;;;;;5.60;1.10;;;;;;;;;;5032109;28;20045;-78
2023/11/02 03:49:12;;;;;;;4.97;1.00;;;;;;;;;;5016225;28;20026;-77
2023/11/02 03:51:58;;;;;;;2.03;0.80;;;;;;;;;;5013857;28;20030;-78
2023/11/02 03:54:26;;;;;;;3.03;0.97;;;;;;;;;;5032607;28;20082;-78
2023/11/02 03:57:10;;;;;;;5.43;1.00;;;;;;;;;;5014360;28;20117;-77
2023/11/02 03:59:42;;;;;;;3.60;0.80;;;;;;;;;;5014875;28;20042;-78
2023/11/02 04:02:17;;;;;;;;;;;;;;;;;;5016211;28;20036;-78
2023/11/02 04:05:08;;;;;;;5.37;0.93;;;;;;;;;;5034652;28;19901;-77
2023/11/02 04:07:53;;;;;;;3.17;0.93;;;;;;;;;;5015627;28;20018;-78
2023/11/02 04:10:25;;;;;;;5.10;1.00;;;;;;;;;;5035539;28;20097;-80
2023/11/02 04:13:07;;;;;;;3.70;1.15;;;;;;;;;;5016861;28;20014;-78
2023/11/02 04:15:33;;;;;;;4.07;1.10;;;;;;;;;;5036531;28;20032;-78
2023/11/02 04:17:59;;;;;;;3.03;1.00;;;;;;;;;;5037142;28;20056;-77
2023/11/02 04:20:43;;;;;;;2.57;0.90;;;;;;;;;;5034650;28;20089;-78
2023/11/02 04:23:13;;;;;;;2.53;1.10;;;;;;;;;;5018957;28;20041;-78
2023/11/02 04:25:56;;;;;;;4.10;1.10;;;;;;;;;;5018498;28;20030;-77
2023/11/02 04:28:23;;;;;;;3.00;0.83;;;;;;;;;;5035859;28;20037;-78
2023/11/02 04:30:49;;;;;;;5.63;1.17;;;;;;;;;;5017099;28;20121;-77
2023/11/02 04:33:17;;;;;;;5.30;0.80;;;;;;;;;;5015651;28;20038;-78
2023/11/02 04:35:58;;;;;;;3.07;1.17;;;;;;;;;;5035133;28;20010;-78
2023/11/02 04:38:24;;;;;;;3.17;0.73;;;;;;;;;;5015939;28;20045;-78
2023/11/02 04:40:55;;;;;;;5.97;0.70;;;;;;;;;;5034184;28;20025;-77
2023/11/02 04:43:21;;;;;;;2.67;0.60;;;;;;;;;;5022185;28;20026;-78
2023/11/02 04:46:05;;;;;;;3.00;1.47;;;;;;;;;;5024104;28;20024;-78
2023/11/02 04:48:34;;;;;;;3.17;0.73;;;;;;;;;;5040565;28;20098;-80
2023/11/02 04:51:00;;;;;;;5.33;1.33;;;;;;;;;;5024012;28;20053;-78
2023/11/02 04:53:28;;;;;;;3.97;1.00;;;;;;;;;;5040407;28;20010;-77
2023/11/02 04:56:00;;;;;;;4.67;0.97;;;;;;;;;;5032839;28;20009;-78
2023/11/02 04:58:34;;;;;;;2.00;0.70;;;;;;;;;;5040232;28;20105;-78
2023/11/02 05:01:02;;;;;;;7.33;1.47;;;;;;;;;;5023502;28;20021;-78
2023/11/02 05:03:28;;;;;;;3.70;0.70;;;;;;;;;;5020398;28;20010;-77
2023/11/02 05:05:56;;;;;;;3.00;1.10;;;;;;;;;;5021774;28;20007;-77
2023/11/02 05:08:22;;;;;;;8.07;0.73;;;;;;;;;;5023455;28;20081;-77
2023/11/02 05:10:56;;;;;;;2.67;0.73;;;;;;;;;;5022547;28;20105;-78
2023/11/02 05:13:24;;;;;;;3.63;0.97;;;;;;;;;;5023587;28;20018;-77
2023/11/02 05:15:57;;;;;;;3.60;1.10;;;;;;;;;;5016473;28;20037;-77
2023/11/02 05:18:23;;;;;;;2.10;0.77;;;;;;;;;;5024297;28;20010;-77
2023/11/02 05:20:57;;;;;;;6.60;1.00;;;;;;;;;;5023719;28;20030;-78
2023/11/02 05:23:24;;;;;;;1.23;0.57;;;;;;;;;;5016124;28;20021;-77
2023/11/02 05:25:50;;;;;;;3.63;0.50;;;;;;;;;;5023511;28;20002;-77
2023/11/02 05:28:21;;;;;;;3.77;0.73;;;;;;;;;;5024967;28;20038;-77
2023/11/02 05:30:47;;;;;;;2.33;0.90;;;;;;;;;;5040242;28;20030;-77
2023/11/02 05:33:18;;;;;;;2.07;0.77;;;;;;;;;;5023491;28;20040;-77
2023/11/02 05:35:46;;;;;;;4.77;0.80;;;;;;;;;;5021886;28;20048;-78
2023/11/02 05:38:12;;;;;;;2.67;0.83;;;;;;;;;;5039010;28;20018;-77
2023/11/02 05:40:48;;;;;;;2.37;0.63;;;;;;;;;;5023118;28;20030;-77
2023/11/02 05:43:14;;;;;;;5.17;0.70;;;;;;;;;;5040134;28;20020;-78
2023/11/02 05:45:40;;;;;;;3.70;0.80;;;;;;;;;;5020310;28;20010;-78
2023/11/02 05:48:08;;;;;;;5.17;0.90;;;;;;;;;;5039582;28;20101;-78
2023/11/02 05:50:35;;;;;;;5.03;0.60;;;;;;;;;;5030520;28;20030;-77
2023/11/02 05:53:04;;;;;;;3.77;0.60;;;;;;;;;;5022730;28;20006;-79
2023/11/02 05:55:41;;;;;;;1.77;0.77;;;;;;;;;;5019639;28;20038;-77
2023/11/02 05:58:07;;;;;;;2.27;0.73;;;;;;;;;;5022863;28;20022;-77
2023/11/02 06:00:39;;;;;;;2.63;0.60;;;;;;;;;;5035465;28;20020;-81
2023/11/02 06:03:07;;;;;;;3.05;0.80;;;;;;;;;;5021357;28;20034;-79
2023/11/02 06:05:34;;;;;;;5.07;0.90;;;;;;;;;;5030138;28;20081;-78
2023/11/02 06:08:02;;;;;;;5.40;0.90;;;;;;;;;;5021105;28;20098;-78
2023/11/02 06:10:37;;;;;;;4.00;0.70;;;;;;;;;;5026234;28;20016;-78
2023/11/02 06:13:03;;;;;;;2.47;0.70;;;;;;;;;;5023440;28;20002;-77
2023/11/02 06:15:34;;;;;;;5.07;0.90;;;;;;;;;;5036081;28;20006;-78
2023/11/02 06:18:02;;;;;;;5.03;0.67;;;;;;;;;;5021088;28;20014;-77
2023/11/02 06:20:28;;;;;;;4.40;0.90;;;;;;;;;;5033006;28;20018;-77
2023/11/02 06:22:57;;;;;;;3.33;0.47;;;;;;;;;;5014071;28;20022;-78
2023/11/02 06:25:26;;;;;;;3.17;0.50;;;;;;;;;;5017002;28;20102;-78
2023/11/02 06:27:54;;;;;;;2.23;0.30;;;;;;;;;;5014768;28;20030;-78
2023/11/02 06:30:25;;;;;;;1.17;0.60;;;;;;;;;;5033305;28;20025;-78
2023/11/02 06:32:53;;;;;;;3.70;0.60;;;;;;;;;;5013368;28;20078;-77
2023/11/02 06:35:25;;;;;;;1.47;0.57;;;;;;;;;;5016524;28;20014;-78
2023/11/02 06:38:11;;;;;;;1.92;0.57;;;;;;;;;;5012387;28;20045;-78
2023/11/02 06:40:41;;;;;;;6.23;0.70;;;;;;;;;;5012563;28;20022;-78
2023/11/02 06:43:10;;;;;;;2.93;0.63;;;;;;;;;;5032645;28;20085;-78
2023/11/02 06:45:38;;;;;;;1.37;0.40;;;;;;;;;;5032413;28;20017;-78
2023/11/02 06:48:11;;;;;;;2.23;0.50;;;;;;;;;;5015949;28;20014;-78
2023/11/02 06:50:37;;;;;;;1.57;0.80;;;;;;;;;;5032791;28;20022;-78
2023/11/02 06:53:06;;;;;;;5.27;0.73;;;;;;;;;;5015341;28;20022;-78
2023/11/02 06:55:34;;;;;;;3.00;0.97;;;;;;;;;;5016271;28;20045;-77
2023/11/02 06:58:06;;;;;;;3.03;0.70;;;;;;;;;;5015387;28;20018;-78
2023/11/02 07:00:34;;;;;;;0.63;0.33;;;;;;;;;;5015557;28;20203;-78
2023/11/02 07:03:02;;;;;;;1.00;0.40;;;;;;;;;;5015350;28;20060;-78
2023/11/02 07:05:34;;;;;;;2.17;0.67;;;;;;;;;;5011541;28;20017;-78
2023/11/02 07:08:03;;;;;;;3.20;0.33;;;;;;;;;;5014211;28;20018;-79
2023/11/02 07:10:42;;;;;;;3.90;0.80;;;;;;;;;;5012768;28;20044;-78
2023/11/02 07:13:15;;;;;;;0.73;0.30;;;;;;;;;;5032013;28;20017;-77
2023/11/02 07:15:43;;;;;;;3.23;0.37;;;;;;;;;;5032971;28;20026;-77
2023/11/02 07:18:12;;;;;;;2.20;0.40;;;;;;;;;;5015581;28;20018;-78
2023/11/02 07:20:46;;;;;;;1.73;0.53;;;;;;;;;;5009812;28;20014;-76
2023/11/02 07:23:14;;;;;;;3.87;0.50;;;;;;;;;;5014505;28;20022;-77
2023/11/02 07:25:40;;;;;;;0.83;0.43;;;;;;;;;;5031694;28;20021;-77
2023/11/02 07:28:09;;;;;;;4.80;0.50;;;;;;;;;;5011928;28;20033;-78
2023/11/02 07:30:35;;;;;;;0.50;0.30;;;;;;;;;;5015311;28;20052;-78
2023/11/02 07:33:03;;;;;;;3.30;0.53;;;;;;;;;;5032475;28;20018;-78
2023/11/02 07:35:30;;;;;;;2.47;0.50;;;;;;;;;;5015415;28;20021;-78
2023/11/02 07:38:01;;;;;;;3.03;0.50;;;;;;;;;;5012250;28;20085;-77
2023/11/02 07:40:29;;;;;;;2.07;0.40;;;;;;;;;;5036943;28;20009;-78
2023/11/02 07:42:56;;;;;;;2.20;0.67;;;;;;;;;;5019376;28;21195;-79
2023/11/02 07:45:24;;;;;;;3.03;0.40;;;;;;;;;;5036594;28;20045;-78
2023/11/02 07:47:57;;;;;;;3.83;0.77;;;;;;;;;;5019657;28;20014;-78
2023/11/02 07:50:26;;;;;;;2.57;0.70;;;;;;;;;;5018701;28;20041;-78
2023/11/02 07:52:53;;;;;;;0.60;0.40;;;;;;;;;;5019278;28;20038;-78
2023/11/02 07:55:19;;;;;;;1.57;0.93;;;;;;;;;;5019256;28;20048;-77
2023/11/02 07:57:47;;;;;;;4.63;0.50;;;;;;;;;;5037567;28;20010;-78
2023/11/02 08:00:15;;;;;;;3.30;0.70;;;;;;;;;;5037395;28;20090;-78
2023/11/02 08:02:43;;;;;;;1.47;0.50;;;;;;;;;;5019426;28;20034;-78
2023/11/02 08:05:09;;;;;;;0.97;0.20;;;;;;;;;;5017989;28;20025;-78
2023/11/02 08:07:35;;;;;;;1.27;0.50;;;;;;;;;;5014989;28;20017;-78
2023/11/02 08:10:05;;;;;;;3.70;0.50;;;;;;;;;;5016591;28;20042;-78
2023/11/02 08:12:34;;;;;;;6.30;0.67;;;;;;;;;;5017140;28;20022;-78
2023/11/02 08:15:03;;;;;;;1.63;0.40;;;;;;;;;;5014818;28;20033;-77
2023/11/02 08:17:33;;;;;;;5.33;0.77;;;;;;;;;;5036362;28;20006;-77
2023/11/02 08:20:02;;;;;;;1.47;0.60;;;;;;;;;;5019645;28;20243;-78
2023/11/02 08:22:28;;;;;;;0.97;0.50;;;;;;;;;;5035017;28;20010;-78
2023/11/02 08:24:54;;;;;;;1.10;0.40;;;;;;;;;;5015982;28;20037;-78
2023/11/02 08:27:20;;;;;;;1.47;0.50;;;;;;;;;;5017634;28;20034;-77
2023/11/02 08:29:47;;;;;;;2.43;0.73;;;;;;;;;;5034105;28;20049;-78
2023/11/02 08:32:16;;;;;;;3.47;0.43;;;;;;;;;;5014142;28;20026;-78
2023/11/02 08:34:42;;;;;;;1.80;0.67;;;;;;;;;;5018109;28;20153;-78
2023/11/02 08:37:11;;;;;;;3.77;0.90;;;;;;;;;;5034159;28;20081;-78
2023/11/02 08:39:41;;;;;;;3.17;0.80;;;;;;;;;;5016959;28;20026;-78
2023/11/02 08:44:56;;;;;;;4.20;1.00;;;;;;;;;;5162912;22;20030;-77
2023/11/02 08:47:22;;;;;;;9.23;1.50;;;;;;;;;;5127895;23;20109;-78
2023/11/02 08:49:48;;;;;;;1.90;0.80;;;;;;;;;;5057428;28;20012;-78
2023/11/02 08:52:16;;;;;;;1.00;0.40;;;;;;;;;;5056827;28;20116;-77
2023/11/02 08:54:43;;;;;;;2.83;0.77;;;;;;;;;;5055049;28;20017;-77
2023/11/02 08:57:09;;;;;;;5.10;0.70;;;;;;;;;;5045529;28;20033;-79
2023/11/02 08:59:37;;;;;;;1.83;0.70;;;;;;;;;;5055059;28;20025;-78
2023/11/02 09:02:03;;;;;;;2.17;0.67;;;;;;;;;;5055911;28;20047;-78
2023/11/02 09:04:30;;;;;;;1.27;0.40;;;;;;;;;;5055109;28;20018;-77
2023/11/02 09:06:56;;;;;;;6.17;1.40;;;;;;;;;;5055643;28;20095;-78
2023/11/02 09:09:24;;;;;;;2.17;0.50;;;;;;;;;;5055922;28;20049;-78
2023/11/02 09:11:53;;;;;;;2.13;0.77;;;;;;;;;;5054531;28;20040;-78
2023/11/02 09:14:20;;;;;;;1.33;0.30;;;;;;;;;;5042768;28;20030;-78
2023/11/02 09:16:48;;;;;;;3.00;0.80;;;;;;;;;;5054169;28;20037;-78
2023/11/02 09:19:14;;;;;;;2.60;0.57;;;;;;;;;;5044191;28;20041;-77
2023/11/02 09:21:43;;;;;;;2.67;0.40;;;;;;;;;;5044321;28;20029;-78
2023/11/02 09:24:09;;;;;;;5.27;0.70;;;;;;;;;;5054523;28;20074;-77
2023/11/02 09:26:41;;;;;;;4.47;0.90;;;;;;;;;;5053863;28;21521;-78
2023/11/02 09:29:07;;;;;;;3.13;0.60;;;;;;;;;;5054163;28;20021;-78
2023/11/02 09:31:33;;;;;;;3.00;0.80;;;;;;;;;;5054149;28;20065;-78
2023/11/02 09:34:02;;;;;;;1.87;0.60;;;;;;;;;;5052802;28;20044;-79
2023/11/02 09:36:29;;;;;;;3.13;0.80;;;;;;;;;;5055264;28;20025;-78
2023/11/02 09:39:10;;;;;;;;;;;;;;;;;;;;;
2023/11/02 09:41:37;;;;;;;3.27;0.80;;;;;;;;;;5054446;28;20230;-78
2023/11/02 09:44:06;;;;;;;4.17;0.83;;;;;;;;;;5054519;28;20093;-77
2023/11/02 09:46:33;;;;;;;3.57;1.00;;;;;;;;;;5053799;28;20036;-78
2023/11/02 09:49:02;;;;;;;7.03;0.90;;;;;;;;;;5054173;28;20021;-77
2023/11/02 09:51:31;;;;;;;5.90;0.95;;;;;;;;;;5054231;28;20024;-77
2023/11/02 09:53:58;;;;;;;4.93;0.90;;;;;;;;;;5052643;28;20025;-78
2023/11/02 09:56:24;;;;;;;4.90;1.10;;;;;;;;;;5052493;28;20032;-78
2023/11/02 09:58:53;;;;;;;2.80;0.60;;;;;;;;;;5041058;28;20071;-79
2023/11/02 10:01:25;;;;;;;4.47;0.80;;;;;;;;;;5053863;28;20041;-78
2023/11/02 10:03:51;;;;;;;1.98;0.60;;;;;;;;;;5052408;28;20021;-79
2023/11/02 10:06:25;;;;;;;5.70;0.93;;;;;;;;;;5052943;28;20016;-78
2023/11/02 10:08:51;;;;;;;2.03;0.75;;;;;;;;;;5052521;28;20056;-78
2023/11/02 10:11:24;;;;;;;5.95;0.90;;;;;;;;;;5051953;28;20033;-78
2023/11/02 10:14:01;;;;;;;7.68;0.98;;;;;;;;;;5052634;28;20033;-78
2023/11/02 10:16:29;;;;;;;6.72;1.45;;;;;;;;;;5052380;28;20021;-78
2023/11/02 10:18:56;;;;;;;7.78;0.70;;;;;;;;;;5051943;28;21088;-78
2023/11/02 10:21:22;;;;;;;3.42;0.75;;;;;;;;;;5053355;28;20032;-79
2023/11/02 10:23:55;;;;;;;4.78;0.88;;;;;;;;;;5053000;28;20018;-78
2023/11/02 10:26:23;;;;;;;3.97;0.98;;;;;;;;;;5050798;28;20025;-79
2023/11/02 10:28:54;;;;;;;3.88;1.10;;;;;;;;;;5051247;28;20076;-78
2023/11/02 10:31:30;;;;;;;3.10;1.08;;;;;;;;;;5051808;28;20042;-78
2023/11/02 10:33:59;;;;;;;5.45;1.10;;;;;;;;;;5039713;28;20021;-78
2023/11/02 10:36:25;;;;;;;5.18;0.88;;;;;;;;;;5052526;28;20040;-77
2023/11/02 10:38:51;;;;;;;6.25;1.35;;;;;;;;;;5052713;28;20022;-79
2023/11/02 10:41:18;;;;;;;6.07;1.00;;;;;;;;;;5052452;28;20044;-78
2023/11/02 10:43:53;;;;;;;4.63;0.77;;;;;;;;;;5057255;28;20041;-78
2023/11/02 10:46:23;;;;;;;2.70;1.10;;;;;;;;;;5054899;28;20025;-79
2023/11/02 10:48:55;;;;;;;3.13;0.75;;;;;;;;;;5047849;28;20032;-78
2023/11/02 10:51:44;;;;;;;9.52;2.05;;;;;;;;;;5043395;28;20105;-78
2023/11/02 10:54:24;;;;;;;5.53;0.70;;;;;;;;;;5050577;28;20072;-79
2023/11/02 10:57:06;;;;;;;3.80;0.90;;;;;;;;;;5056546;28;20017;-78
2023/11/02 10:59:33;;;;;;;4.00;1.02;;;;;;;;;;5030969;28;20025;-79
2023/11/02 11:02:00;;;;;;;4.30;0.57;;;;;;;;;;5052774;28;20017;-78
2023/11/02 11:04:26;;;;;;;7.97;1.05;;;;;;;;;;5050327;28;20017;-78
2023/11/02 11:07:03;;;;;;;3.95;0.88;;;;;;;;;;5055021;28;20022;-78
2023/11/02 11:09:32;;;;;;;5.93;1.08;;;;;;;;;;5052714;28;20010;-78
2023/11/02 11:12:02;;;;;;;5.40;1.00;;;;;;;;;;5051730;28;20057;-79
2023/11/02 11:14:40;;;;;;;5.97;0.95;;;;;;;;;;5053479;28;20033;-78
2023/11/02 11:17:06;;;;;;;6.55;1.33;;;;;;;;;;5051526;28;20098;-78
2023/11/02 11:19:33;;;;;;;4.03;0.70;;;;;;;;;;5054824;28;20013;-78
2023/11/02 11:22:05;;;;;;;4.10;0.73;;;;;;;;;;5052426;28;20041;-79
2023/11/02 11:24:36;;;;;;;7.47;1.13;;;;;;;;;;5052189;28;20072;-79
2023/11/02 11:27:05;;;;;;;6.50;1.42;;;;;;;;;;5049974;28;20022;-78
2023/11/02 11:29:35;;;;;;;4.68;1.10;;;;;;;;;;5049482;28;20006;-79
2023/11/02 11:32:02;;;;;;;6.50;0.80;;;;;;;;;;5054955;28;20088;-78
2023/11/02 11:34:48;;;;;;;7.70;0.98;;;;;;;;;;5057260;28;20009;-79
2023/11/02 11:37:34;;;;;;;4.25;0.85;;;;;;;;;;5051718;28;20048;-78
2023/11/02 11:40:05;;;;;;;6.13;1.20;;;;;;;;;;5057384;28;20014;-78
2023/11/02 11:42:50;;;;;;;7.60;1.20;;;;;;;;;;5053786;28;20018;-78
2023/11/02 11:45:31;;;;;;;6.63;1.30;;;;;;;;;;5050823;28;20018;-78
2023/11/02 11:48:05;;;;;;;11.93;1.02;;;;;;;;;;5051962;28;20022;-76
2023/11/02 11:50:31;;;;;;;6.30;1.27;;;;;;;;;;5057525;28;20085;-77
2023/11/02 11:53:17;;;;;;;4.50;1.02;;;;;;;;;;5046765;28;20077;-78
2023/11/02 11:55:54;;;;;;;6.82;1.05;;;;;;;;;;5057458;28;20073;-80
2023/11/02 11:58:41;;;;;;;4.75;0.77;;;;;;;;;;5056907;28;20060;-77
2023/11/02 12:01:14;;;;;;;11.07;1.33;;;;;;;;;;5047992;28;20085;-78
2023/11/02 12:03:40;;;;;;;9.80;1.45;;;;;;;;;;5045235;28;20030;-80
2023/11/02 12:06:12;;;;;;;6.60;1.08;;;;;;;;;;5054854;28;20053;-79
2023/11/02 12:08:54;;;;;;;7.90;1.17;;;;;;;;;;5052564;28;20025;-78
2023/11/02 12:11:24;;;;;;;7.30;1.77;;;;;;;;;;5050312;28;20046;-79
2023/11/02 12:13:57;;;;;;;9.48;1.08;;;;;;;;;;5054924;28;20017;-79
2023/11/02 12:16:32;;;;;;;8.77;1.20;;;;;;;;;;5047218;28;20013;-79
2023/11/02 12:19:01;;;;;;;9.25;1.95;;;;;;;;;;5049370;28;20206;-77
2023/11/02 12:21:27;;;;;;;7.78;1.73;;;;;;;;;;5050644;28;20036;-78
2023/11/02 12:23:58;;;;;;;8.02;1.40;;;;;;;;;;5051468;28;20038;-78
2023/11/02 12:26:25;;;;;;;5.25;1.08;;;;;;;;;;5053617;28;20032;-78
2023/11/02 12:28:56;;;;;;;6.80;1.30;;;;;;;;;;5043516;28;20014;-78
2023/11/02 12:31:26;;;;;;;3.92;1.38;;;;;;;;;;5052516;28;20103;-79
2023/11/02 12:33:55;;;;;;;6.00;1.50;;;;;;;;;;5055430;28;20053;-77
2023/11/02 12:36:21;;;;;;;6.05;1.00;;;;;;;;;;5042077;28;20097;-79
2023/11/02 12:38:48;;;;;;;10.63;1.55;;;;;;;;;;5054455;28;20039;-80
2023/11/02 12:41:28;;;;;;;8.68;1.48;;;;;;;;;;5054758;28;20118;-79
2023/11/02 12:44:11;;;;;;;11.18;1.30;;;;;;;;;;5043363;28;20029;-78
2023/11/02 12:46:36;;;;;;;;;;;;;;;;;;5042747;28;20045;-78
2023/11/02 12:49:21;;;;;;;8.05;1.52;;;;;;;;;;5053153;28;19932;-79
2023/11/02 12:51:47;;;;;;;7.45;1.63;;;;;;;;;;5053753;28;20053;-78
2023/11/02 12:54:19;;;;;;;8.25;1.63;;;;;;;;;;5053077;28;20025;-78
2023/11/02 12:56:55;;;;;;;7.57;1.00;;;;;;;;;;5051145;28;20041;-79
2023/11/02 12:59:27;;;;;;;8.98;2.00;;;;;;;;;;5051971;28;20053;-79
2023/11/02 13:01:59;;;;;;;6.47;1.05;;;;;;;;;;5052359;28;20037;-79
2023/11/02 13:04:45;;;;;;;9.05;1.67;;;;;;;;;;5052772;28;20029;-80
2023/11/02 13:07:27;;;;;;;9.45;2.53;;;;;;;;;;5051151;28;20025;-79
2023/11/02 13:10:07;;;;;;;5.55;1.38;;;;;;;;;;5047110;28;20035;-81
2023/11/02 13:12:38;;;;;;;6.35;1.35;;;;;;;;;;5050181;28;20044;-79
2023/11/02 13:15:07;;;;;;;6.32;1.30;;;;;;;;;;5052735;28;20089;-80
2023/11/02 13:17:33;;;;;;;7.15;1.20;;;;;;;;;;5051125;28;20057;-78
2023/11/02 13:19:59;;;;;;;5.50;1.30;;;;;;;;;;5052142;28;20085;-79
2023/11/02 13:22:26;;;;;;;10.35;1.00;;;;;;;;;;5049830;28;20033;-81
2023/11/02 13:24:52;;;;;;;6.45;1.27;;;;;;;;;;5033579;28;20120;-83
2023/11/02 13:27:18;;;;;;;7.38;1.10;;;;;;;;;;5032235;28;20036;-82
2023/11/02 13:29:46;;;;;;;5.78;1.45;;;;;;;;;;5034262;28;20104;-82
2023/11/02 13:32:12;;;;;;;5.22;1.20;;;;;;;;;;5032558;28;20030;-85
2023/11/02 13:34:41;;;;;;;5.88;1.25;;;;;;;;;;5035017;28;20071;-82
2023/11/02 13:37:08;;;;;;;11.55;1.50;;;;;;;;;;5031101;28;20026;-83
2023/11/02 13:39:34;;;;;;;6.97;1.23;;;;;;;;;;5032329;28;20084;-84
2023/11/02 13:42:01;;;;;;;6.40;1.33;;;;;;;;;;5031988;28;20097;-84
2023/11/02 13:44:29;;;;;;;8.80;1.45;;;;;;;;;;5033684;28;20037;-84
2023/11/02 13:46:55;;;;;;;3.28;0.75;;;;;;;;;;5031702;28;20047;-83
2023/11/02 13:49:21;;;;;;;5.82;1.08;;;;;;;;;;5034040;28;20021;-81
2023/11/02 13:51:49;;;;;;;7.30;0.95;;;;;;;;;;5034227;28;20397;-80
2023/11/02 13:54:15;;;;;;;5.20;1.38;;;;;;;;;;5033012;28;20021;-81
2023/11/02 13:56:43;;;;;;;5.75;0.95;;;;;;;;;;5034634;28;20021;-79
2023/11/02 13:59:09;;;;;;;3.50;0.82;;;;;;;;;;5031038;28;20089;-80
2023/11/02 14:01:35;;;;;;;3.33;0.80;;;;;;;;;;5031085;28;20040;-81
2023/11/02 14:04:01;;;;;;;5.88;1.27;;;;;;;;;;5032360;28;20368;-81
2023/11/02 14:06:32;;;;;;;3.70;1.05;;;;;;;;;;5032417;28;20025;-81
2023/11/02 14:08:58;;;;;;;11.40;1.20;;;;;;;;;;5031919;28;20029;-80
2023/11/02 14:11:25;;;;;;;5.35;1.00;;;;;;;;;;5034128;28;20036;-79
2023/11/02 14:13:54;;;;;;;6.07;1.70;;;;;;;;;;5041561;28;20022;-79
2023/11/02 14:16:23;;;;;;;6.80;1.35;;;;;;;;;;5050301;28;20038;-79
2023/11/02 14:18:49;;;;;;;4.60;1.27;;;;;;;;;;5052081;28;20074;-78
2023/11/02 14:21:15;;;;;;;7.63;1.50;;;;;;;;;;5046611;28;20044;-78
2023/11/02 14:23:41;;;;;;;4.47;1.85;;;;;;;;;;5050705;28;20033;-80
2023/11/02 14:26:09;;;;;;;6.72;1.48;;;;;;;;;;5047966;28;20040;-79
2023/11/02 14:28:37;;;;;;;4.28;1.10;;;;;;;;;;5043668;28;20063;-78
2023/11/02 14:31:03;;;;;;;5.03;1.15;;;;;;;;;;5049426;28;20095;-81
2023/11/02 14:33:30;;;;;;;5.80;1.38;;;;;;;;;;5046185;28;20039;-79
2023/11/02 14:35:56;;;;;;;7.82;1.90;;;;;;;;;;5047883;28;20140;-80
2023/11/02 14:38:25;;;;;;;11.05;2.42;;;;;;;;;;5047474;28;20041;-81
2023/11/02 14:40:51;;;;;;;9.48;1.20;;;;;;;;;;5047471;28;20029;-79
2023/11/02 14:43:17;;;;;;;8.13;1.88;;;;;;;;;;5047642;28;20057;-80
2023/11/02 14:45:44;;;;;;;9.98;2.30;;;;;;;;;;5049886;28;20065;-81
2023/11/02 14:48:10;;;;;;;12.10;2.47;;;;;;;;;;5051241;28;20092;-79
2023/11/02 14:50:39;;;;;;;14.00;2.05;;;;;;;;;;5036359;28;20068;-79
2023/11/02 14:53:05;;;;;;;6.53;1.45;;;;;;;;;;5048408;28;20378;-80
2023/11/02 14:55:31;;;;;;;7.15;1.38;;;;;;;;;;5048961;28;20037;-79
2023/11/02 14:57:57;;;;;;;7.93;1.77;;;;;;;;;;5047722;28;20042;-79
2023/11/02 15:00:23;;;;;;;12.00;1.73;;;;;;;;;;5038137;28;20064;-78
2023/11/02 15:02:49;;;;;;;10.15;1.52;;;;;;;;;;5051412;28;20045;-80
2023/11/02 15:05:16;;;;;;;9.23;2.17;;;;;;;;;;5036431;28;20029;-81
2023/11/02 15:07:43;;;;;;;8.63;1.60;;;;;;;;;;5048958;28;20037;-80
2023/11/02 15:10:09;;;;;;;11.07;1.80;;;;;;;;;;5046007;28;20438;-78
2023/11/02 15:12:35;;;;;;;10.30;1.80;;;;;;;;;;5045938;28;20029;-80
2023/11/02 15:15:02;;;;;;;10.85;2.50;;;;;;;;;;5037681;28;20052;-81